createdAt,value
2018-11-25T00:00:15.985Z,95253.00
2018-11-25T00:00:53.472Z,95253.00
2018-11-25T00:01:31.117Z,95252.00
2018-11-25T00:03:08.037Z,95252.00
2018-11-25T00:03:45.664Z,95251.00
2018-11-25T00:04:23.089Z,95257.00
2018-11-25T00:05:00.685Z,95251.00
2018-11-25T00:05:38.320Z,95250.00
2018-11-25T00:06:15.826Z,95250.00
2018-11-25T00:06:53.470Z,95249.00
2018-11-25T00:07:34.910Z,95246.00
2018-11-25T00:08:08.918Z,95251.00
2018-11-25T00:08:46.621Z,95247.00
2018-11-25T00:09:24.149Z,95248.00
2018-11-25T00:10:01.830Z,95247.00
2018-11-25T00:10:39.553Z,95250.00
2018-11-25T00:11:17.353Z,95244.00
2018-11-25T00:11:55.096Z,95241.00
2018-11-25T00:12:32.805Z,95243.00
2018-11-25T00:13:10.297Z,95244.00
2018-11-25T00:13:48.093Z,95243.00
2018-11-25T00:14:25.590Z,95243.00
2018-11-25T00:15:03.121Z,95244.00
2018-11-25T00:15:40.608Z,95240.00
2018-11-25T00:16:18.266Z,95238.00
2018-11-25T00:16:55.838Z,95245.00
2018-11-25T00:17:33.485Z,95243.00
2018-11-25T00:18:10.969Z,95243.00
2018-11-25T00:18:48.645Z,95239.00
2018-11-25T00:19:26.161Z,95247.00
2018-11-25T00:20:03.748Z,95245.00
2018-11-25T00:20:41.306Z,95243.00
2018-11-25T00:21:19.183Z,95242.00
2018-11-25T00:21:56.908Z,95248.00
2018-11-25T00:22:34.434Z,95245.00
2018-11-25T00:23:12.092Z,95246.00
2018-11-25T00:23:49.894Z,95249.00
2018-11-25T00:24:27.560Z,95246.00
2018-11-25T00:25:05.146Z,95246.00
2018-11-25T00:25:42.637Z,95245.00
2018-11-25T00:26:20.226Z,95242.00
2018-11-25T00:26:57.958Z,95243.00
2018-11-25T00:27:35.396Z,95241.00
2018-11-25T00:28:12.999Z,95241.00
2018-11-25T00:28:50.635Z,95236.00
2018-11-25T00:29:28.254Z,95236.00
2018-11-25T00:30:05.824Z,95236.00
2018-11-25T00:30:43.470Z,95239.00
2018-11-25T00:31:21.030Z,95240.00
2018-11-25T00:31:58.567Z,95240.00
2018-11-25T00:32:36.219Z,95239.00
2018-11-25T00:33:13.866Z,95240.00
2018-11-25T00:33:51.422Z,95240.00
2018-11-25T00:34:28.993Z,95241.00
2018-11-25T00:35:06.597Z,95238.00
2018-11-25T00:35:44.287Z,95238.00
2018-11-25T00:36:22.011Z,95238.00
2018-11-25T00:36:59.626Z,95234.00
2018-11-25T00:37:37.163Z,95236.00
2018-11-25T00:38:14.592Z,95234.00
2018-11-25T00:38:52.216Z,95238.00
2018-11-25T00:39:29.733Z,95235.00
2018-11-25T00:40:07.301Z,95236.00
2018-11-25T00:40:44.812Z,95236.00
2018-11-25T00:41:22.392Z,95232.00
2018-11-25T00:42:00.042Z,95233.00
2018-11-25T00:42:37.671Z,95231.00
2018-11-25T00:43:15.570Z,95234.00
2018-11-25T00:43:53.102Z,95229.00
2018-11-25T00:44:30.704Z,95233.00
2018-11-25T00:45:08.319Z,95230.00
2018-11-25T00:45:46.038Z,95229.00
2018-11-25T00:46:23.920Z,95231.00
2018-11-25T00:47:01.529Z,95231.00
2018-11-25T00:47:39.074Z,95230.00
2018-11-25T00:48:16.616Z,95234.00
2018-11-25T00:48:54.253Z,95233.00
2018-11-25T00:49:31.715Z,95236.00
2018-11-25T00:50:09.367Z,95236.00
2018-11-25T00:50:46.866Z,95236.00
2018-11-25T00:51:24.465Z,95234.00
2018-11-25T00:52:02.139Z,95232.00
2018-11-25T00:52:39.706Z,95231.00
2018-11-25T00:53:17.630Z,95232.00
2018-11-25T00:53:55.496Z,95231.00
2018-11-25T00:54:33.246Z,95229.00
2018-11-25T00:55:10.716Z,95228.00
2018-11-25T00:55:48.522Z,95234.00
2018-11-25T00:56:26.003Z,95233.00
2018-11-25T00:57:03.844Z,95229.00
2018-11-25T00:57:41.545Z,95231.00
2018-11-25T00:58:19.068Z,95232.00
2018-11-25T00:58:56.733Z,95234.00
2018-11-25T00:59:34.439Z,95229.00
2018-11-25T01:00:12.182Z,95227.00
2018-11-25T01:00:49.670Z,95231.00
2018-11-25T01:01:27.263Z,95227.00
2018-11-25T01:02:04.984Z,95229.00
2018-11-25T01:02:42.681Z,95230.00
2018-11-25T01:03:20.166Z,95227.00
2018-11-25T01:03:57.778Z,95228.00
2018-11-25T01:04:35.562Z,95234.00
2018-11-25T01:05:13.348Z,95235.00
2018-11-25T01:05:50.886Z,95232.00
2018-11-25T01:06:28.439Z,95233.00
2018-11-25T01:07:05.990Z,95230.00
2018-11-25T01:07:43.739Z,95232.00
2018-11-25T01:08:21.270Z,95231.00
2018-11-25T01:08:58.939Z,95232.00
2018-11-25T01:09:36.429Z,95232.00
2018-11-25T01:10:13.955Z,95235.00
2018-11-25T01:10:51.586Z,95231.00
2018-11-25T01:11:29.230Z,95230.00
2018-11-25T01:12:06.778Z,95227.00
2018-11-25T01:12:44.492Z,95230.00
2018-11-25T01:13:22.043Z,95229.00
2018-11-25T01:13:59.893Z,95228.00
2018-11-25T01:14:37.667Z,95234.00
2018-11-25T01:15:15.193Z,95230.00
2018-11-25T01:15:53.150Z,95232.00
2018-11-25T01:16:30.831Z,95232.00
2018-11-25T01:17:08.479Z,95233.00
2018-11-25T01:17:46.047Z,95229.00
2018-11-25T01:18:23.596Z,95231.00
2018-11-25T01:19:01.232Z,95236.00
2018-11-25T01:19:38.806Z,95235.00
2018-11-25T01:20:16.274Z,95236.00
2018-11-25T01:20:53.808Z,95236.00
2018-11-25T01:21:31.314Z,95237.00
2018-11-25T01:22:08.801Z,95234.00
2018-11-25T01:22:46.849Z,95229.00
2018-11-25T01:23:24.223Z,95231.00
2018-11-25T01:24:01.943Z,95228.00
2018-11-25T01:24:39.549Z,95230.00
2018-11-25T01:25:17.143Z,95229.00
2018-11-25T01:25:55.131Z,95232.00
2018-11-25T01:26:32.645Z,95232.00
2018-11-25T01:27:10.399Z,95231.00
2018-11-25T01:27:48.114Z,95227.00
2018-11-25T01:28:25.903Z,95232.00
2018-11-25T01:29:03.356Z,95230.00
2018-11-25T01:29:41.063Z,95227.00
2018-11-25T01:30:18.555Z,95229.00
2018-11-25T01:30:56.151Z,95224.00
2018-11-25T01:31:33.686Z,95229.00
2018-11-25T01:32:11.292Z,95226.00
2018-11-25T01:32:48.647Z,95231.00
2018-11-25T01:33:26.407Z,95222.00
2018-11-25T01:34:04.113Z,95220.00
2018-11-25T01:34:41.683Z,95226.00
2018-11-25T01:35:19.288Z,95219.00
2018-11-25T01:35:56.958Z,95219.00
2018-11-25T01:36:34.587Z,95220.00
2018-11-25T01:37:12.118Z,95218.00
2018-11-25T01:37:49.822Z,95214.00
2018-11-25T01:38:27.428Z,95214.00
2018-11-25T01:39:04.958Z,95215.00
2018-11-25T01:39:42.451Z,95215.00
2018-11-25T01:40:20.318Z,95217.00
2018-11-25T01:40:57.870Z,95213.00
2018-11-25T01:41:35.578Z,95215.00
2018-11-25T01:42:13.143Z,95210.00
2018-11-25T01:42:50.635Z,95210.00
2018-11-25T01:43:28.399Z,95213.00
2018-11-25T01:44:06.251Z,95208.00
2018-11-25T01:44:44.009Z,95212.00
2018-11-25T01:45:21.390Z,95208.00
2018-11-25T01:45:59.202Z,95212.00
2018-11-25T01:46:36.879Z,95210.00
2018-11-25T01:47:14.459Z,95211.00
2018-11-25T01:47:52.104Z,95207.00
2018-11-25T01:48:29.977Z,95209.00
2018-11-25T01:49:07.487Z,95210.00
2018-11-25T01:49:44.936Z,95210.00
2018-11-25T01:50:22.525Z,95208.00
2018-11-25T01:51:00.158Z,95208.00
2018-11-25T01:51:38.002Z,95205.00
2018-11-25T01:52:15.444Z,95203.00
2018-11-25T01:52:53.004Z,95204.00
2018-11-25T01:53:30.596Z,95203.00
2018-11-25T01:54:08.176Z,95203.00
2018-11-25T01:54:45.850Z,95201.00
2018-11-25T01:55:23.344Z,95201.00
2018-11-25T01:56:01.123Z,95199.00
2018-11-25T01:56:38.627Z,95202.00
2018-11-25T01:57:16.287Z,95198.00
2018-11-25T01:57:53.807Z,95196.00
2018-11-25T01:58:31.762Z,95195.00
2018-11-25T01:59:09.562Z,95191.00
2018-11-25T01:59:47.277Z,95188.00
2018-11-25T02:00:24.665Z,95186.00
2018-11-25T02:01:02.313Z,95187.00
2018-11-25T02:01:39.856Z,95185.00
2018-11-25T02:02:17.476Z,95184.00
2018-11-25T02:02:55.001Z,95183.00
2018-11-25T02:03:32.450Z,95181.00
2018-11-25T02:04:09.885Z,95180.00
2018-11-25T02:04:47.686Z,95179.00
2018-11-25T02:05:25.612Z,95181.00
2018-11-25T02:06:03.075Z,95180.00
2018-11-25T02:06:40.639Z,95176.00
2018-11-25T02:07:18.233Z,95180.00
2018-11-25T02:07:55.869Z,95177.00
2018-11-25T02:08:33.612Z,95176.00
2018-11-25T02:09:11.191Z,95177.00
2018-11-25T02:09:48.932Z,95174.00
2018-11-25T02:10:26.360Z,95177.00
2018-11-25T02:11:03.879Z,95173.00
2018-11-25T02:11:41.416Z,95171.00
2018-11-25T02:12:18.996Z,95173.00
2018-11-25T02:12:56.569Z,95168.00
2018-11-25T02:13:34.083Z,95170.00
2018-11-25T02:14:11.663Z,95173.00
2018-11-25T02:14:49.186Z,95172.00
2018-11-25T02:15:26.916Z,95169.00
2018-11-25T02:16:04.343Z,95172.00
2018-11-25T02:16:41.767Z,95167.00
2018-11-25T02:17:19.388Z,95169.00
2018-11-25T02:17:56.906Z,95168.00
2018-11-25T02:18:34.520Z,95169.00
2018-11-25T02:19:12.152Z,95163.00
2018-11-25T02:19:49.739Z,95166.00
2018-11-25T02:20:27.368Z,95163.00
2018-11-25T02:21:04.918Z,95165.00
2018-11-25T02:21:42.448Z,95161.00
2018-11-25T02:22:20.024Z,95160.00
2018-11-25T02:22:57.831Z,95167.00
2018-11-25T02:23:35.527Z,95165.00
2018-11-25T02:24:13.026Z,95172.00
2018-11-25T02:24:50.777Z,95167.00
2018-11-25T02:25:28.373Z,95168.00
2018-11-25T02:26:05.879Z,95166.00
2018-11-25T02:26:43.623Z,95162.00
2018-11-25T02:27:21.204Z,95168.00
2018-11-25T02:27:58.710Z,95161.00
2018-11-25T02:28:36.672Z,95167.00
2018-11-25T02:29:14.254Z,95160.00
2018-11-25T02:29:51.835Z,95165.00
2018-11-25T02:30:29.621Z,95164.00
2018-11-25T02:31:07.406Z,95160.00
2018-11-25T02:31:45.258Z,95164.00
2018-11-25T02:32:22.774Z,95162.00
2018-11-25T02:33:00.212Z,95164.00
2018-11-25T02:33:38.039Z,95164.00
2018-11-25T02:34:15.627Z,95164.00
2018-11-25T02:34:53.196Z,95159.00
2018-11-25T02:35:30.738Z,95160.00
2018-11-25T02:36:08.347Z,95164.00
2018-11-25T02:36:45.999Z,95161.00
2018-11-25T02:37:23.607Z,95165.00
2018-11-25T02:38:01.236Z,95162.00
2018-11-25T02:38:38.908Z,95160.00
2018-11-25T02:39:16.520Z,95158.00
2018-11-25T02:39:54.227Z,95164.00
2018-11-25T02:40:31.915Z,95160.00
2018-11-25T02:41:09.446Z,95158.00
2018-11-25T02:41:47.146Z,95152.00
2018-11-25T02:42:24.734Z,95153.00
2018-11-25T02:43:02.362Z,95153.00
2018-11-25T02:43:40.023Z,95149.00
2018-11-25T02:44:17.610Z,95149.00
2018-11-25T02:44:55.106Z,95151.00
2018-11-25T02:45:32.707Z,95148.00
2018-11-25T02:46:10.184Z,95152.00
2018-11-25T02:46:47.927Z,95153.00
2018-11-25T02:47:25.559Z,95154.00
2018-11-25T02:48:03.196Z,95154.00
2018-11-25T02:48:40.688Z,95154.00
2018-11-25T02:49:18.357Z,95152.00
2018-11-25T02:49:56.026Z,95151.00
2018-11-25T02:50:33.693Z,95150.00
2018-11-25T02:51:11.340Z,95152.00
2018-11-25T02:51:49.174Z,95153.00
2018-11-25T02:52:26.655Z,95152.00
2018-11-25T02:53:04.103Z,95151.00
2018-11-25T02:53:41.871Z,95150.00
2018-11-25T02:54:19.455Z,95149.00
2018-11-25T02:54:57.132Z,95151.00
2018-11-25T02:55:34.732Z,95143.00
2018-11-25T02:56:12.310Z,95146.00
2018-11-25T02:56:49.880Z,95140.00
2018-11-25T02:57:27.482Z,95145.00
2018-11-25T02:58:05.136Z,95139.00
2018-11-25T02:58:42.733Z,95137.00
2018-11-25T02:59:20.196Z,95137.00
2018-11-25T02:59:57.802Z,95136.00
2018-11-25T03:00:35.302Z,95143.00
2018-11-25T03:01:12.949Z,95139.00
2018-11-25T03:01:50.512Z,95134.00
2018-11-25T03:02:28.124Z,95130.00
2018-11-25T03:03:05.699Z,95132.00
2018-11-25T03:03:43.185Z,95132.00
2018-11-25T03:04:20.700Z,95126.00
2018-11-25T03:04:58.286Z,95131.00
2018-11-25T03:05:35.818Z,95132.00
2018-11-25T03:06:13.435Z,95129.00
2018-11-25T03:06:51.157Z,95135.00
2018-11-25T03:07:28.647Z,95137.00
2018-11-25T03:08:06.274Z,95132.00
2018-11-25T03:08:43.986Z,95134.00
2018-11-25T03:09:21.572Z,95134.00
2018-11-25T03:09:59.195Z,95142.00
2018-11-25T03:10:36.691Z,95136.00
2018-11-25T03:11:14.536Z,95141.00
2018-11-25T03:11:52.080Z,95139.00
2018-11-25T03:12:29.677Z,95148.00
2018-11-25T03:13:07.203Z,95142.00
2018-11-25T03:13:44.834Z,95141.00
2018-11-25T03:14:22.562Z,95145.00
2018-11-25T03:15:00.169Z,95144.00
2018-11-25T03:15:37.731Z,95144.00
2018-11-25T03:16:15.568Z,95146.00
2018-11-25T03:16:53.287Z,95146.00
2018-11-25T03:17:30.887Z,95145.00
2018-11-25T03:18:08.470Z,95146.00
2018-11-25T03:18:46.057Z,95146.00
2018-11-25T03:19:23.476Z,95148.00
2018-11-25T03:20:01.183Z,95144.00
2018-11-25T03:20:38.842Z,95144.00
2018-11-25T03:21:16.472Z,95147.00
2018-11-25T03:21:54.118Z,95150.00
2018-11-25T03:22:31.632Z,95139.00
2018-11-25T03:23:09.422Z,95145.00
2018-11-25T03:23:46.935Z,95144.00
2018-11-25T03:24:24.543Z,95143.00
2018-11-25T03:25:02.174Z,95143.00
2018-11-25T03:25:39.939Z,95145.00
2018-11-25T03:26:17.474Z,95139.00
2018-11-25T03:26:55.053Z,95146.00
2018-11-25T03:27:32.676Z,95150.00
2018-11-25T03:28:10.325Z,95151.00
2018-11-25T03:28:48.023Z,95145.00
2018-11-25T03:29:25.741Z,95151.00
2018-11-25T03:30:03.425Z,95155.00
2018-11-25T03:30:40.939Z,95153.00
2018-11-25T03:31:18.518Z,95151.00
2018-11-25T03:31:56.339Z,95157.00
2018-11-25T03:32:33.830Z,95154.00
2018-11-25T03:33:11.612Z,95154.00
2018-11-25T03:33:49.287Z,95155.00
2018-11-25T03:34:26.747Z,95156.00
2018-11-25T03:35:04.333Z,95157.00
2018-11-25T03:35:41.933Z,95154.00
2018-11-25T03:36:19.447Z,95155.00
2018-11-25T03:36:57.081Z,95153.00
2018-11-25T03:37:34.554Z,95156.00
2018-11-25T03:38:12.106Z,95150.00
2018-11-25T03:38:49.823Z,95157.00
2018-11-25T03:39:27.447Z,95153.00
2018-11-25T03:40:04.993Z,95149.00
2018-11-25T03:40:42.529Z,95151.00
2018-11-25T03:41:20.192Z,95150.00
2018-11-25T03:41:58.153Z,95147.00
2018-11-25T03:42:35.655Z,95150.00
2018-11-25T03:43:13.147Z,95153.00
2018-11-25T03:43:50.761Z,95146.00
2018-11-25T03:44:28.382Z,95151.00
2018-11-25T03:45:06.182Z,95154.00
2018-11-25T03:45:44.004Z,95148.00
2018-11-25T03:46:21.543Z,95147.00
2018-11-25T03:46:59.154Z,95149.00
2018-11-25T03:47:36.802Z,95144.00
2018-11-25T03:48:14.368Z,95145.00
2018-11-25T03:48:51.953Z,95148.00
2018-11-25T03:49:29.547Z,95150.00
2018-11-25T03:50:07.162Z,95147.00
2018-11-25T03:50:44.600Z,95142.00
2018-11-25T03:51:22.179Z,95142.00
2018-11-25T03:51:59.979Z,95147.00
2018-11-25T03:52:37.556Z,95135.00
2018-11-25T03:53:15.107Z,95142.00
2018-11-25T03:53:52.643Z,95139.00
2018-11-25T03:54:30.340Z,95138.00
2018-11-25T03:55:07.832Z,95136.00
2018-11-25T03:55:45.430Z,95136.00
2018-11-25T03:56:22.989Z,95137.00
2018-11-25T03:57:00.462Z,95136.00
2018-11-25T03:57:37.978Z,95133.00
2018-11-25T03:58:15.510Z,95137.00
2018-11-25T03:58:53.278Z,95140.00
2018-11-25T03:59:31.095Z,95136.00
2018-11-25T04:00:08.750Z,95140.00
2018-11-25T04:00:46.063Z,95134.00
2018-11-25T04:01:23.784Z,95131.00
2018-11-25T04:02:01.721Z,95130.00
2018-11-25T04:02:39.583Z,95132.00
2018-11-25T04:03:16.997Z,95134.00
2018-11-25T04:03:54.579Z,95131.00
2018-11-25T04:04:31.992Z,95125.00
2018-11-25T04:05:09.573Z,95128.00
2018-11-25T04:05:47.171Z,95126.00
2018-11-25T04:06:24.651Z,95122.00
2018-11-25T04:07:02.146Z,95123.00
2018-11-25T04:07:39.802Z,95119.00
2018-11-25T04:08:17.294Z,95117.00
2018-11-25T04:08:54.949Z,95116.00
2018-11-25T04:09:32.492Z,95114.00
2018-11-25T04:10:09.939Z,95109.00
2018-11-25T04:10:47.426Z,95113.00
2018-11-25T04:11:25.242Z,95112.00
2018-11-25T04:12:02.894Z,95113.00
2018-11-25T04:12:40.447Z,95112.00
2018-11-25T04:13:18.035Z,95111.00
2018-11-25T04:13:55.615Z,95110.00
2018-11-25T04:14:33.194Z,95107.00
2018-11-25T04:15:10.748Z,95108.00
2018-11-25T04:15:48.331Z,95105.00
2018-11-25T04:16:25.815Z,95109.00
2018-11-25T04:17:03.696Z,95104.00
2018-11-25T04:17:41.292Z,95105.00
2018-11-25T04:18:19.012Z,95101.00
2018-11-25T04:18:56.387Z,95108.00
2018-11-25T04:19:34.097Z,95105.00
2018-11-25T04:20:11.781Z,95103.00
2018-11-25T04:20:49.474Z,95102.00
2018-11-25T04:21:27.156Z,95105.00
2018-11-25T04:22:04.889Z,95098.00
2018-11-25T04:22:42.500Z,95099.00
2018-11-25T04:23:20.103Z,95105.00
2018-11-25T04:23:57.706Z,95100.00
2018-11-25T04:24:35.386Z,95105.00
2018-11-25T04:25:13.027Z,95100.00
2018-11-25T04:25:50.596Z,95103.00
2018-11-25T04:26:28.329Z,95099.00
2018-11-25T04:27:05.751Z,95098.00
2018-11-25T04:27:43.306Z,95098.00
2018-11-25T04:28:20.894Z,95098.00
2018-11-25T04:28:58.609Z,95101.00
2018-11-25T04:29:36.236Z,95101.00
2018-11-25T04:30:13.817Z,95099.00
2018-11-25T04:30:51.532Z,95104.00
2018-11-25T04:31:29.304Z,95101.00
2018-11-25T04:32:06.835Z,95103.00
2018-11-25T04:32:44.503Z,95100.00
2018-11-25T04:33:22.051Z,95101.00
2018-11-25T04:33:59.618Z,95099.00
2018-11-25T04:34:37.366Z,95098.00
2018-11-25T04:35:15.188Z,95095.00
2018-11-25T04:35:52.691Z,95098.00
2018-11-25T04:36:30.467Z,95095.00
2018-11-25T04:37:08.157Z,95096.00
2018-11-25T04:37:45.704Z,95099.00
2018-11-25T04:38:23.358Z,95095.00
2018-11-25T04:39:00.815Z,95094.00
2018-11-25T04:39:38.557Z,95096.00
2018-11-25T04:40:15.954Z,95096.00
2018-11-25T04:40:53.667Z,95098.00
2018-11-25T04:41:31.332Z,95091.00
2018-11-25T04:42:08.771Z,95088.00
2018-11-25T04:42:46.263Z,95092.00
2018-11-25T04:43:23.899Z,95086.00
2018-11-25T04:44:01.829Z,95091.00
2018-11-25T04:44:39.506Z,95088.00
2018-11-25T04:45:17.283Z,95088.00
2018-11-25T04:45:55.041Z,95089.00
2018-11-25T04:46:32.588Z,95091.00
2018-11-25T04:47:10.171Z,95085.00
2018-11-25T04:47:47.820Z,95091.00
2018-11-25T04:48:25.554Z,95090.00
2018-11-25T04:49:03.191Z,95091.00
2018-11-25T04:49:40.708Z,95089.00
2018-11-25T04:50:18.376Z,95091.00
2018-11-25T04:50:56.143Z,95091.00
2018-11-25T04:51:34.074Z,95090.00
2018-11-25T04:52:11.661Z,95090.00
2018-11-25T04:52:49.355Z,95086.00
2018-11-25T04:53:26.973Z,95085.00
2018-11-25T04:54:04.614Z,95087.00
2018-11-25T04:54:42.206Z,95083.00
2018-11-25T04:55:19.707Z,95081.00
2018-11-25T04:55:57.251Z,95081.00
2018-11-25T04:56:35.048Z,95086.00
2018-11-25T04:57:12.562Z,95081.00
2018-11-25T04:57:50.136Z,95081.00
2018-11-25T04:58:27.916Z,95082.00
2018-11-25T04:59:05.425Z,95080.00
2018-11-25T04:59:42.966Z,95081.00
2018-11-25T05:00:20.490Z,95075.00
2018-11-25T05:00:57.990Z,95072.00
2018-11-25T05:01:35.769Z,95076.00
2018-11-25T05:02:13.556Z,95070.00
2018-11-25T05:02:51.132Z,95073.00
2018-11-25T05:03:28.512Z,95071.00
2018-11-25T05:04:06.062Z,95071.00
2018-11-25T05:04:43.528Z,95072.00
2018-11-25T05:05:21.187Z,95068.00
2018-11-25T05:05:59.053Z,95072.00
2018-11-25T05:06:36.531Z,95073.00
2018-11-25T05:07:14.199Z,95071.00
2018-11-25T05:07:51.714Z,95071.00
2018-11-25T05:08:29.363Z,95076.00
2018-11-25T05:09:07.095Z,95077.00
2018-11-25T05:09:44.527Z,95076.00
2018-11-25T05:10:22.237Z,95073.00
2018-11-25T05:11:00.106Z,95078.00
2018-11-25T05:11:37.675Z,95076.00
2018-11-25T05:12:15.347Z,95077.00
2018-11-25T05:12:53.067Z,95077.00
2018-11-25T05:13:30.585Z,95072.00
2018-11-25T05:14:08.186Z,95075.00
2018-11-25T05:14:45.818Z,95078.00
2018-11-25T05:15:23.582Z,95075.00
2018-11-25T05:16:01.231Z,95069.00
2018-11-25T05:16:39.163Z,95069.00
2018-11-25T05:17:16.719Z,95070.00
2018-11-25T05:17:54.307Z,95069.00
2018-11-25T05:18:31.994Z,95058.00
2018-11-25T05:19:09.583Z,95062.00
2018-11-25T05:19:47.237Z,95062.00
2018-11-25T05:20:24.963Z,95059.00
2018-11-25T05:21:02.678Z,95056.00
2018-11-25T05:21:40.163Z,95056.00
2018-11-25T05:22:17.775Z,95053.00
2018-11-25T05:22:55.522Z,95054.00
2018-11-25T05:23:33.118Z,95053.00
2018-11-25T05:24:10.646Z,95053.00
2018-11-25T05:24:48.358Z,95056.00
2018-11-25T05:25:25.905Z,95056.00
2018-11-25T05:26:03.461Z,95055.00
2018-11-25T05:26:41.102Z,95054.00
2018-11-25T05:27:18.742Z,95054.00
2018-11-25T05:27:56.366Z,95053.00
2018-11-25T05:28:34.191Z,95055.00
2018-11-25T05:29:11.863Z,95052.00
2018-11-25T05:29:49.360Z,95051.00
2018-11-25T05:30:27.047Z,95054.00
2018-11-25T05:31:04.774Z,95050.00
2018-11-25T05:31:42.713Z,95053.00
2018-11-25T05:32:20.255Z,95049.00
2018-11-25T05:32:57.987Z,95047.00
2018-11-25T05:33:35.583Z,95047.00
2018-11-25T05:34:13.210Z,95048.00
2018-11-25T05:34:50.872Z,95045.00
2018-11-25T05:35:28.453Z,95043.00
2018-11-25T05:36:06.122Z,95045.00
2018-11-25T05:36:43.625Z,95048.00
2018-11-25T05:37:21.246Z,95047.00
2018-11-25T05:37:59.104Z,95040.00
2018-11-25T05:38:36.648Z,95043.00
2018-11-25T05:39:14.231Z,95043.00
2018-11-25T05:39:51.712Z,95045.00
2018-11-25T05:40:29.219Z,95046.00
2018-11-25T05:41:06.862Z,95042.00
2018-11-25T05:41:44.428Z,95044.00
2018-11-25T05:42:22.060Z,95046.00
2018-11-25T05:42:59.757Z,95046.00
2018-11-25T05:43:37.538Z,95044.00
2018-11-25T05:44:14.994Z,95046.00
2018-11-25T05:44:52.540Z,95048.00
2018-11-25T05:45:30.280Z,95044.00
2018-11-25T05:46:08.239Z,95046.00
2018-11-25T05:46:45.702Z,95048.00
2018-11-25T05:47:23.448Z,95048.00
2018-11-25T05:48:00.865Z,95042.00
2018-11-25T05:48:38.633Z,95042.00
2018-11-25T05:49:16.431Z,95047.00
2018-11-25T05:49:54.307Z,95043.00
2018-11-25T05:50:32.093Z,95045.00
2018-11-25T05:51:09.670Z,95044.00
2018-11-25T05:51:47.320Z,95048.00
2018-11-25T05:52:24.911Z,95047.00
2018-11-25T05:53:02.484Z,95045.00
2018-11-25T05:53:40.095Z,95046.00
2018-11-25T05:54:17.712Z,95048.00
2018-11-25T05:54:55.204Z,95044.00
2018-11-25T05:55:32.847Z,95049.00
2018-11-25T05:56:10.417Z,95048.00
2018-11-25T05:56:48.079Z,95051.00
2018-11-25T05:57:25.606Z,95046.00
2018-11-25T05:58:03.124Z,95054.00
2018-11-25T05:58:40.724Z,95047.00
2018-11-25T05:59:18.517Z,95051.00
2018-11-25T05:59:56.191Z,95049.00
2018-11-25T06:00:34.109Z,95051.00
2018-11-25T06:01:11.654Z,95047.00
2018-11-25T06:01:49.303Z,95045.00
2018-11-25T06:02:26.858Z,95050.00
2018-11-25T06:03:04.331Z,95046.00
2018-11-25T06:03:41.827Z,95040.00
2018-11-25T06:04:19.388Z,95041.00
2018-11-25T06:04:56.890Z,95046.00
2018-11-25T06:05:34.416Z,95042.00
2018-11-25T06:06:11.987Z,95041.00
2018-11-25T06:06:49.630Z,95037.00
2018-11-25T06:07:27.206Z,95037.00
2018-11-25T06:08:05.004Z,95037.00
2018-11-25T06:08:42.539Z,95036.00
2018-11-25T06:09:20.083Z,95037.00
2018-11-25T06:09:57.710Z,95034.00
2018-11-25T06:10:35.334Z,95037.00
2018-11-25T06:11:12.880Z,95034.00
2018-11-25T06:11:50.508Z,95033.00
2018-11-25T06:12:28.082Z,95029.00
2018-11-25T06:13:05.695Z,95030.00
2018-11-25T06:13:43.594Z,95028.00
2018-11-25T06:14:20.972Z,95024.00
2018-11-25T06:14:58.396Z,95024.00
2018-11-25T06:15:36.164Z,95021.00
2018-11-25T06:16:14.020Z,95022.00
2018-11-25T06:16:51.597Z,95022.00
2018-11-25T06:17:29.291Z,95021.00
2018-11-25T06:18:06.852Z,95022.00
2018-11-25T06:18:44.443Z,95021.00
2018-11-25T06:19:22.099Z,95024.00
2018-11-25T06:19:59.559Z,95021.00
2018-11-25T06:20:37.116Z,95016.00
2018-11-25T06:21:14.750Z,95019.00
2018-11-25T06:21:52.212Z,95021.00
2018-11-25T06:22:29.809Z,95015.00
2018-11-25T06:23:07.259Z,95015.00
2018-11-25T06:23:44.851Z,95016.00
2018-11-25T06:24:22.423Z,95019.00
2018-11-25T06:25:00.008Z,95014.00
2018-11-25T06:25:37.511Z,95020.00
2018-11-25T06:26:15.228Z,95022.00
2018-11-25T06:26:52.818Z,95021.00
2018-11-25T06:27:30.508Z,95017.00
2018-11-25T06:28:07.994Z,95016.00
2018-11-25T06:28:45.496Z,95021.00
2018-11-25T06:29:23.079Z,95016.00
2018-11-25T06:30:00.754Z,95020.00
2018-11-25T06:30:38.250Z,95017.00
2018-11-25T06:31:15.820Z,95014.00
2018-11-25T06:31:53.414Z,95014.00
2018-11-25T06:32:31.168Z,95014.00
2018-11-25T06:33:08.655Z,95010.00
2018-11-25T06:33:46.345Z,95015.00
2018-11-25T06:34:23.974Z,95015.00
2018-11-25T06:35:01.798Z,95009.00
2018-11-25T06:35:39.361Z,95016.00
2018-11-25T06:36:16.952Z,95011.00
2018-11-25T06:36:54.410Z,95010.00
2018-11-25T06:37:31.922Z,95011.00
2018-11-25T06:38:09.498Z,95007.00
2018-11-25T06:38:47.047Z,95009.00
2018-11-25T06:39:24.718Z,95003.00
2018-11-25T06:40:02.322Z,95003.00
2018-11-25T06:40:39.802Z,95007.00
2018-11-25T06:41:17.289Z,95000.00
2018-11-25T06:41:54.865Z,95002.00
2018-11-25T06:42:32.640Z,95006.00
2018-11-25T06:43:10.055Z,95004.00
2018-11-25T06:43:47.840Z,95002.00
2018-11-25T06:44:25.321Z,95002.00
2018-11-25T06:45:02.778Z,95003.00
2018-11-25T06:45:40.458Z,95005.00
2018-11-25T06:46:17.853Z,95000.00
2018-11-25T06:46:55.528Z,94999.00
2018-11-25T06:47:33.096Z,95004.00
2018-11-25T06:48:10.797Z,95006.00
2018-11-25T06:48:54.840Z,95003.00
2018-11-25T06:49:26.063Z,95001.00
2018-11-25T06:50:03.645Z,95002.00
2018-11-25T06:50:41.141Z,95001.00
2018-11-25T06:51:18.724Z,95002.00
2018-11-25T06:51:56.397Z,95001.00
2018-11-25T06:52:34.076Z,94999.00
2018-11-25T06:53:11.830Z,95003.00
2018-11-25T06:53:49.379Z,94999.00
2018-11-25T06:54:27.158Z,94999.00
2018-11-25T06:55:04.910Z,94996.00
2018-11-25T06:55:42.546Z,94996.00
2018-11-25T06:56:27.197Z,94994.00
2018-11-25T06:56:57.783Z,94993.00
2018-11-25T06:57:35.438Z,94993.00
2018-11-25T06:58:13.224Z,94994.00
2018-11-25T06:58:50.984Z,94987.00
2018-11-25T06:59:28.658Z,94992.00
2018-11-25T07:00:06.061Z,94992.00
2018-11-25T07:00:43.756Z,94989.00
2018-11-25T07:01:21.194Z,94986.00
2018-11-25T07:01:58.607Z,94987.00
2018-11-25T07:02:36.304Z,94989.00
2018-11-25T07:03:14.079Z,94987.00
2018-11-25T07:03:51.775Z,94989.00
2018-11-25T07:04:29.275Z,94987.00
2018-11-25T07:05:06.925Z,94984.00
2018-11-25T07:05:44.577Z,94984.00
2018-11-25T07:06:22.027Z,94986.00
2018-11-25T07:06:59.678Z,94984.00
2018-11-25T07:07:37.216Z,94987.00
2018-11-25T07:08:14.933Z,94985.00
2018-11-25T07:08:52.663Z,94986.00
2018-11-25T07:09:30.203Z,94984.00
2018-11-25T07:10:07.840Z,94988.00
2018-11-25T07:10:45.379Z,94985.00
2018-11-25T07:11:23.005Z,94985.00
2018-11-25T07:12:00.579Z,94988.00
2018-11-25T07:12:38.194Z,94986.00
2018-11-25T07:13:15.995Z,94984.00
2018-11-25T07:13:53.748Z,94984.00
2018-11-25T07:14:31.463Z,94984.00
2018-11-25T07:15:08.993Z,94985.00
2018-11-25T07:15:46.796Z,94992.00
2018-11-25T07:16:24.475Z,94988.00
2018-11-25T07:17:02.199Z,94991.00
2018-11-25T07:17:39.670Z,94985.00
2018-11-25T07:18:17.320Z,94990.00
2018-11-25T07:18:54.880Z,94989.00
2018-11-25T07:19:32.488Z,94983.00
2018-11-25T07:20:10.076Z,94990.00
2018-11-25T07:20:47.684Z,94987.00
2018-11-25T07:21:25.228Z,94991.00
2018-11-25T07:22:02.956Z,94994.00
2018-11-25T07:22:40.482Z,94995.00